createdAt,value
2023-04-02T00:00:30.434Z,10.36
2023-04-02T00:02:34.380Z,10.35
2023-04-02T00:04:38.157Z,10.38
2023-04-02T00:06:44.792Z,10.37
2023-04-02T00:08:48.909Z,10.39
2023-04-02T00:10:54.740Z,10.44
2023-04-02T00:13:02.695Z,10.47
2023-04-02T00:15:06.312Z,10.49
2023-04-02T00:17:09.479Z,10.53
2023-04-02T00:19:18.332Z,10.56
2023-04-02T00:21:24.037Z,10.59
2023-04-02T00:23:26.820Z,10.62
2023-04-02T00:25:31.837Z,10.63
2023-04-02T00:27:37.333Z,10.64
2023-04-02T00:29:46.909Z,10.64
2023-04-02T00:31:52.442Z,10.64
2023-04-02T00:33:55.904Z,10.65
2023-04-02T00:35:59.074Z,10.65
2023-04-02T00:38:03.292Z,10.64
2023-04-02T00:40:11.093Z,10.63
2023-04-02T00:42:14.442Z,10.65
2023-04-02T00:44:22.202Z,10.65
2023-04-02T00:46:30.797Z,10.66
2023-04-02T00:48:42.285Z,10.66
2023-04-02T00:50:46.270Z,10.64
2023-04-02T00:52:51.255Z,10.61
2023-04-02T00:55:01.077Z,10.59
2023-04-02T00:57:04.332Z,10.55
2023-04-02T00:59:21.091Z,10.55
2023-04-02T01:01:27.301Z,10.55
2023-04-02T01:03:37.782Z,10.59
2023-04-02T01:05:44.910Z,10.60
2023-04-02T01:08:04.618Z,10.60
2023-04-02T01:10:24.005Z,10.58
2023-04-02T01:12:39.248Z,10.58
2023-04-02T01:14:52.202Z,10.60
2023-04-02T01:17:00.480Z,10.57
2023-04-02T01:19:14.703Z,10.58
2023-04-02T01:21:37.059Z,10.58
2023-04-02T01:23:49.714Z,10.58
2023-04-02T01:25:58.461Z,10.60
2023-04-02T01:28:07.922Z,10.59
2023-04-02T01:30:14.605Z,10.57
2023-04-02T01:32:21.683Z,10.58
2023-04-02T01:34:27.258Z,10.57
2023-04-02T01:36:38.117Z,10.55
2023-04-02T01:38:47.219Z,10.52
2023-04-02T01:40:56.435Z,10.37
2023-04-02T01:43:07.600Z,10.31
2023-04-02T01:45:14.886Z,10.27
2023-04-02T01:47:20.878Z,10.17
2023-04-02T01:49:24.913Z,10.13
2023-04-02T01:51:31.235Z,10.07
2023-04-02T01:53:36.304Z,9.96
2023-04-02T01:55:43.434Z,9.90
2023-04-02T01:57:51.141Z,9.90
2023-04-02T01:59:55.080Z,9.94
2023-04-02T02:02:02.967Z,9.86
2023-04-02T02:04:08.495Z,9.76
2023-04-02T02:06:14.224Z,9.77
2023-04-02T02:08:27.249Z,9.79
2023-04-02T02:10:35.364Z,9.80
2023-04-02T02:12:39.117Z,9.79
2023-04-02T02:14:47.690Z,9.82
2023-04-02T02:16:53.553Z,9.85
2023-04-02T02:19:01.914Z,9.89
2023-04-02T02:21:06.594Z,9.92
2023-04-02T02:23:12.312Z,9.96
2023-04-02T02:25:19.234Z,9.96
2023-04-02T02:27:43.532Z,9.97
2023-04-02T02:29:50.490Z,10.00
2023-04-02T02:31:55.274Z,10.02
2023-04-02T02:34:04.441Z,10.05
2023-04-02T02:36:11.498Z,10.09
2023-04-02T02:38:32.714Z,10.10
2023-04-02T02:40:44.981Z,10.09
2023-04-02T02:42:50.618Z,10.07
2023-04-02T02:44:55.457Z,10.06
2023-04-02T02:47:02.607Z,10.08
2023-04-02T02:49:08.547Z,10.09
2023-04-02T02:51:19.071Z,10.09
2023-04-02T02:53:24.205Z,10.08
2023-04-02T02:55:32.114Z,10.09
2023-04-02T02:57:48.604Z,10.10
2023-04-02T02:59:52.751Z,10.08
2023-04-02T03:01:55.836Z,10.07
2023-04-02T03:03:59.217Z,10.08
2023-04-02T03:06:06.950Z,10.08
2023-04-02T03:08:16.389Z,10.08
2023-04-02T03:10:24.060Z,10.12
2023-04-02T03:12:36.361Z,10.12
2023-04-02T03:14:44.809Z,10.12
2023-04-02T03:16:50.934Z,10.12
2023-04-02T03:18:57.955Z,10.10
2023-04-02T03:21:06.900Z,10.12
2023-04-02T03:23:17.446Z,10.13
2023-04-02T03:25:29.237Z,10.14
2023-04-02T03:27:36.349Z,10.15
2023-04-02T03:29:42.713Z,10.16
2023-04-02T03:31:50.020Z,10.16
2023-04-02T03:33:57.100Z,10.16
2023-04-02T03:36:06.282Z,10.18
2023-04-02T03:38:15.039Z,10.19
2023-04-02T03:40:22.396Z,10.22
2023-04-02T03:42:26.891Z,10.24
2023-04-02T03:44:37.632Z,10.27
2023-04-02T03:46:42.852Z,10.26
2023-04-02T03:48:47.340Z,10.28
2023-04-02T03:50:54.356Z,10.27
2023-04-02T03:52:59.742Z,10.25
2023-04-02T03:55:04.974Z,10.23
2023-04-02T03:57:13.285Z,10.23
2023-04-02T03:59:23.097Z,10.23
2023-04-02T04:01:31.691Z,10.24
2023-04-02T04:03:41.022Z,10.23
2023-04-02T04:05:48.366Z,10.25
2023-04-02T04:07:54.963Z,10.25
2023-04-02T04:10:00.630Z,10.27
2023-04-02T04:12:11.168Z,10.30
2023-04-02T04:14:18.300Z,10.31
2023-04-02T04:16:23.634Z,10.31
2023-04-02T04:18:34.811Z,10.33
2023-04-02T04:20:46.011Z,10.32
2023-04-02T04:22:56.106Z,10.33
2023-04-02T04:25:05.330Z,10.30
2023-04-02T04:27:17.158Z,10.33
2023-04-02T04:29:45.651Z,10.34
2023-04-02T04:31:55.387Z,10.34
2023-04-02T04:34:09.217Z,10.32
2023-04-02T04:36:21.626Z,10.32
2023-04-02T04:38:32.741Z,10.32
2023-04-02T04:40:43.479Z,10.33
2023-04-02T04:42:48.737Z,10.35
2023-04-02T04:44:57.337Z,10.36
2023-04-02T04:47:03.926Z,10.36
2023-04-02T04:49:10.814Z,10.35
2023-04-02T04:51:20.838Z,10.37
2023-04-02T04:53:26.034Z,10.38
2023-04-02T04:55:35.302Z,10.39
2023-04-02T04:57:41.564Z,10.40
2023-04-02T04:59:53.602Z,10.40
2023-04-02T05:02:02.837Z,10.40
2023-04-02T05:04:13.103Z,10.38
2023-04-02T05:06:29.687Z,10.36
2023-04-02T05:08:36.914Z,10.36
2023-04-02T05:10:43.425Z,10.39
2023-04-02T05:12:52.620Z,10.39
2023-04-02T05:14:59.708Z,10.39
2023-04-02T05:17:06.023Z,10.40
2023-04-02T05:19:12.412Z,10.41
2023-04-02T05:21:19.386Z,10.35
2023-04-02T05:23:27.072Z,10.34
2023-04-02T05:25:32.307Z,10.35
2023-04-02T05:27:41.537Z,10.34
2023-04-02T05:29:48.979Z,10.34
2023-04-02T05:31:56.712Z,10.35
2023-04-02T05:34:00.407Z,10.35
2023-04-02T05:36:05.911Z,10.36
2023-04-02T05:38:20.794Z,10.36
2023-04-02T05:40:25.493Z,10.37
2023-04-02T05:42:30.672Z,10.37
2023-04-02T05:44:50.172Z,10.41
2023-04-02T05:46:57.275Z,10.43
2023-04-02T05:49:06.838Z,10.47
2023-04-02T05:51:15.493Z,10.49
2023-04-02T05:53:21.672Z,10.51
2023-04-02T05:55:46.231Z,10.54
2023-04-02T05:58:10.458Z,10.56
2023-04-02T06:00:21.895Z,10.57
2023-04-02T06:02:31.776Z,10.60
2023-04-02T06:04:38.246Z,10.63
2023-04-02T06:06:49.310Z,10.65
2023-04-02T06:08:58.793Z,10.67
2023-04-02T06:11:07.402Z,10.68
2023-04-02T06:13:14.548Z,10.67
2023-04-02T06:15:22.729Z,10.69
2023-04-02T06:17:30.158Z,10.68
2023-04-02T06:19:37.386Z,10.68
2023-04-02T06:21:45.073Z,10.69
2023-04-02T06:23:53.666Z,10.69
2023-04-02T06:26:00.751Z,10.71
2023-04-02T06:28:07.525Z,10.71
2023-04-02T06:30:17.652Z,10.72
2023-04-02T06:32:25.610Z,10.74
2023-04-02T06:34:30.969Z,10.76
2023-04-02T06:36:57.346Z,10.77
2023-04-02T06:39:05.647Z,10.77
2023-04-02T06:41:14.408Z,10.77
2023-04-02T06:43:55.403Z,10.77
2023-04-02T06:46:23.137Z,10.76
2023-04-02T06:48:47.339Z,10.76
2023-04-02T06:50:54.173Z,10.78
2023-04-02T06:52:59.737Z,10.78
2023-04-02T06:55:08.344Z,10.80
2023-04-02T06:57:12.027Z,10.83
2023-04-02T06:59:18.558Z,10.83
2023-04-02T07:01:25.740Z,10.85
2023-04-02T07:03:30.645Z,10.87
2023-04-02T07:05:40.429Z,10.90
2023-04-02T07:07:45.991Z,10.91
2023-04-02T07:09:50.497Z,10.92
2023-04-02T07:11:53.740Z,10.94
2023-04-02T07:13:56.859Z,10.92
2023-04-02T07:16:01.503Z,10.94
2023-04-02T07:18:05.380Z,10.93
2023-04-02T07:20:25.761Z,10.93
2023-04-02T07:22:30.376Z,10.94
2023-04-02T07:24:36.488Z,10.94
2023-04-02T07:26:39.803Z,10.95
2023-04-02T07:28:43.310Z,10.97
2023-04-02T07:30:46.747Z,10.95
2023-04-02T07:32:50.121Z,10.96
2023-04-02T07:34:53.239Z,10.98
2023-04-02T07:36:56.397Z,10.99
2023-04-02T07:39:00.876Z,11.01
2023-04-02T07:41:06.980Z,11.05
2023-04-02T07:43:10.412Z,11.06
2023-04-02T07:45:13.575Z,11.06
2023-04-02T07:47:16.640Z,11.07
2023-04-02T07:49:19.683Z,11.11
2023-04-02T07:51:24.383Z,11.16
2023-04-02T07:53:30.608Z,11.23
2023-04-02T07:55:35.272Z,11.27
2023-04-02T07:57:43.109Z,11.33
2023-04-02T07:59:48.058Z,11.38
2023-04-02T08:01:51.527Z,11.43
2023-04-02T08:03:56.216Z,11.46
2023-04-02T08:05:59.744Z,11.47
2023-04-02T08:08:02.935Z,11.45
2023-04-02T08:10:07.033Z,11.45
2023-04-02T08:12:13.406Z,11.49
2023-04-02T08:14:16.683Z,11.50
2023-04-02T08:16:19.989Z,11.52
2023-04-02T08:18:23.596Z,11.56
2023-04-02T08:20:26.678Z,11.56
2023-04-02T08:22:29.889Z,11.58
2023-04-02T08:24:32.915Z,11.57
2023-04-02T08:26:36.260Z,11.57
2023-04-02T08:28:41.173Z,11.55
2023-04-02T08:30:44.930Z,11.54
2023-04-02T08:32:48.701Z,11.57
2023-04-02T08:34:51.844Z,11.60
2023-04-02T08:36:57.322Z,11.64
2023-04-02T08:39:01.052Z,11.73
2023-04-02T08:41:05.982Z,11.79
2023-04-02T08:43:28.965Z,11.83
2023-04-02T08:45:42.206Z,11.84
2023-04-02T08:47:47.240Z,11.81
2023-04-02T08:49:52.554Z,11.80
2023-04-02T08:51:56.026Z,11.78
2023-04-02T08:54:02.325Z,11.78
2023-04-02T08:56:09.720Z,11.74
2023-04-02T08:58:22.915Z,11.71
2023-04-02T09:00:32.547Z,11.72
2023-04-02T09:02:41.681Z,11.74
2023-04-02T09:04:44.888Z,11.80
2023-04-02T09:06:48.666Z,11.83
2023-04-02T09:08:53.443Z,11.85
2023-04-02T09:11:01.931Z,11.88
2023-04-02T09:13:08.694Z,11.89
2023-04-02T09:15:20.615Z,11.95
2023-04-02T09:17:25.576Z,12.00
2023-04-02T09:19:34.664Z,12.03
2023-04-02T09:21:41.981Z,12.04
2023-04-02T09:23:45.105Z,12.05
2023-04-02T09:26:01.328Z,11.93
2023-04-02T09:28:10.955Z,11.95
2023-04-02T09:30:24.200Z,12.07
2023-04-02T09:32:40.011Z,12.16
2023-04-02T09:34:44.700Z,12.23
2023-04-02T09:36:47.790Z,12.31
2023-04-02T09:39:06.347Z,12.33
2023-04-02T09:41:21.065Z,12.32
2023-04-02T09:43:25.676Z,12.29
2023-04-02T09:45:29.319Z,12.38
2023-04-02T09:47:33.196Z,12.50
2023-04-02T09:49:37.957Z,12.57
2023-04-02T09:51:42.600Z,12.58
2023-04-02T09:53:47.214Z,12.47
2023-04-02T09:55:50.250Z,12.37
2023-04-02T09:58:08.812Z,12.41
2023-04-02T10:00:30.782Z,12.43
2023-04-02T10:02:35.657Z,12.41
2023-04-02T10:04:44.671Z,12.36
2023-04-02T10:06:53.991Z,12.35
2023-04-02T10:08:58.117Z,12.33
2023-04-02T10:11:03.058Z,12.32
2023-04-02T10:13:09.469Z,12.32
2023-04-02T10:15:15.990Z,12.31
2023-04-02T10:17:21.177Z,12.34
2023-04-02T10:19:28.762Z,12.33
2023-04-02T10:21:34.796Z,12.35
2023-04-02T10:23:39.749Z,12.41
2023-04-02T10:25:46.701Z,12.40
2023-04-02T10:27:53.524Z,12.45
2023-04-02T10:30:06.045Z,12.54
2023-04-02T10:32:13.118Z,12.58
2023-04-02T10:34:22.847Z,12.68
2023-04-02T10:36:32.099Z,12.76
2023-04-02T10:38:44.189Z,12.81
2023-04-02T10:40:49.560Z,12.88
2023-04-02T10:42:56.814Z,12.87
2023-04-02T10:45:03.590Z,12.81
2023-04-02T10:47:14.448Z,12.83
2023-04-02T10:49:24.006Z,12.84
2023-04-02T10:51:32.758Z,12.88
2023-04-02T10:53:42.814Z,12.92
2023-04-02T10:55:50.564Z,12.90
2023-04-02T10:57:55.733Z,12.89
2023-04-02T11:00:01.289Z,12.92
2023-04-02T11:02:12.223Z,12.89
2023-04-02T11:04:18.773Z,12.93
2023-04-02T11:06:25.102Z,13.01
2023-04-02T11:08:31.208Z,13.15
2023-04-02T11:10:36.660Z,13.23
2023-04-02T11:12:43.012Z,13.32
2023-04-02T11:14:46.059Z,13.36
2023-04-02T11:16:49.947Z,13.31
2023-04-02T11:19:23.461Z,13.38
2023-04-02T11:21:54.912Z,13.48
2023-04-02T11:24:00.183Z,13.57
2023-04-02T11:26:43.088Z,13.55
2023-04-02T11:28:47.650Z,13.53
2023-04-02T11:30:50.775Z,13.59
2023-04-02T11:32:55.208Z,13.72
2023-04-02T11:35:17.547Z,13.76
2023-04-02T11:37:36.009Z,13.69
2023-04-02T11:39:53.575Z,13.59
2023-04-02T11:42:05.756Z,13.48
2023-04-02T11:44:23.298Z,13.28
2023-04-02T11:46:48.963Z,13.02
2023-04-02T11:48:54.696Z,12.88
2023-04-02T11:50:58.427Z,12.76
2023-04-02T11:53:03.428Z,12.71
2023-04-02T11:55:30.707Z,12.62
2023-04-02T11:57:51.515Z,12.57
2023-04-02T12:00:11.521Z,12.54
2023-04-02T12:02:21.218Z,12.44
2023-04-02T12:05:04.323Z,12.34
2023-04-02T12:07:21.417Z,12.11
2023-04-02T12:09:26.781Z,12.16
2023-04-02T12:11:37.805Z,12.25
2023-04-02T12:13:52.134Z,12.36
2023-04-02T12:15:58.905Z,12.45
2023-04-02T12:18:11.083Z,12.46
2023-04-02T12:20:21.889Z,12.51
2023-04-02T12:22:27.178Z,12.44
2023-04-02T12:24:31.465Z,12.52
2023-04-02T12:26:42.904Z,12.52
2023-04-02T12:28:46.481Z,12.60
2023-04-02T12:30:50.618Z,12.69
2023-04-02T12:32:57.002Z,12.76
2023-04-02T12:35:06.263Z,12.77
2023-04-02T12:37:21.924Z,12.70
2023-04-02T12:39:27.913Z,12.71
2023-04-02T12:41:33.377Z,12.72
2023-04-02T12:43:38.041Z,12.79
2023-04-02T12:45:41.373Z,12.70
2023-04-02T12:47:45.934Z,12.70
2023-04-02T12:49:51.198Z,12.73
2023-04-02T12:51:54.746Z,12.53
2023-04-02T12:53:58.296Z,12.30
2023-04-02T12:56:01.651Z,12.01
2023-04-02T12:58:04.716Z,11.93
2023-04-02T13:00:44.509Z,11.62
2023-04-02T13:02:50.361Z,11.51
2023-04-02T13:04:57.035Z,11.37
2023-04-02T13:07:00.557Z,11.31
2023-04-02T13:09:05.469Z,11.37
2023-04-02T13:11:08.965Z,11.40
2023-04-02T13:13:16.794Z,11.39
2023-04-02T13:15:24.096Z,11.23
2023-04-02T13:17:41.021Z,11.21
2023-04-02T13:19:44.333Z,11.10
2023-04-02T13:21:48.773Z,11.00
2023-04-02T13:23:51.936Z,10.95
2023-04-02T13:25:55.156Z,10.81
2023-04-02T13:27:59.688Z,10.79
2023-04-02T13:30:09.525Z,10.74
2023-04-02T13:32:13.933Z,10.67
2023-04-02T13:34:17.843Z,10.61
2023-04-02T13:36:20.984Z,10.50
2023-04-02T13:38:25.570Z,10.52
2023-04-02T13:40:28.588Z,10.56
2023-04-02T13:42:32.441Z,10.66
2023-04-02T13:44:37.557Z,10.55
2023-04-02T13:46:40.748Z,10.52
2023-04-02T13:48:43.819Z,10.61
2023-04-02T13:50:47.317Z,10.55
2023-04-02T13:52:51.771Z,10.51
2023-04-02T13:54:58.436Z,10.52
2023-04-02T13:57:01.917Z,10.60
2023-04-02T13:59:05.137Z,10.58
2023-04-02T14:01:08.648Z,10.43
2023-04-02T14:03:14.492Z,10.49
2023-04-02T14:05:26.816Z,10.47
2023-04-02T14:07:38.196Z,10.51
2023-04-02T14:09:50.442Z,10.49
2023-04-02T14:12:01.954Z,10.42
2023-04-02T14:14:32.320Z,10.41
2023-04-02T14:16:46.965Z,10.34
2023-04-02T14:19:02.688Z,10.41
2023-04-02T14:21:14.291Z,10.41
2023-04-02T14:23:29.948Z,10.41
2023-04-02T14:25:38.118Z,10.42
2023-04-02T14:27:49.778Z,10.43
2023-04-02T14:29:57.146Z,10.51
2023-04-02T14:32:05.945Z,10.60
2023-04-02T14:34:15.960Z,10.46
2023-04-02T14:36:22.828Z,10.43
2023-04-02T14:38:29.821Z,10.33
2023-04-02T14:40:37.544Z,10.13
2023-04-02T14:42:44.668Z,10.10
2023-04-02T14:44:50.870Z,10.14
2023-04-02T14:46:57.705Z,10.18
2023-04-02T14:49:04.927Z,10.18
2023-04-02T14:51:13.600Z,10.11
2023-04-02T14:53:21.636Z,10.07
2023-04-02T14:55:28.565Z,10.12
2023-04-02T14:57:32.851Z,10.16
2023-04-02T14:59:41.342Z,10.18
2023-04-02T15:01:46.983Z,10.29
2023-04-02T15:03:55.518Z,10.37
2023-04-02T15:06:00.742Z,10.48
2023-04-02T15:08:06.662Z,10.54
2023-04-02T15:10:17.227Z,10.49
2023-04-02T15:12:24.232Z,10.26
2023-04-02T15:14:29.925Z,10.36
2023-04-02T15:16:36.511Z,10.45
2023-04-02T15:18:39.705Z,10.51
2023-04-02T15:20:50.222Z,10.61
2023-04-02T15:22:58.914Z,10.69
2023-04-02T15:25:13.879Z,10.51
2023-04-02T15:27:28.199Z,10.50
2023-04-02T15:29:44.171Z,10.55
2023-04-02T15:31:48.828Z,10.64
2023-04-02T15:33:55.557Z,10.70
2023-04-02T15:36:02.933Z,10.71
2023-04-02T15:38:09.963Z,10.48
2023-04-02T15:40:22.224Z,10.35
2023-04-02T15:42:27.320Z,10.34
2023-04-02T15:44:30.505Z,10.28
2023-04-02T15:46:39.820Z,10.24
2023-04-02T15:49:09.889Z,10.12
2023-04-02T15:51:25.845Z,10.07
2023-04-02T15:53:37.057Z,9.97
2023-04-02T15:55:44.154Z,9.93
2023-04-02T15:57:58.749Z,9.74
2023-04-02T16:00:21.336Z,9.65
2023-04-02T16:02:49.332Z,9.67
2023-04-02T16:04:58.963Z,9.62
2023-04-02T16:07:15.563Z,9.71
2023-04-02T16:09:24.260Z,9.74
2023-04-02T16:11:28.008Z,9.80
2023-04-02T16:13:32.905Z,9.77
2023-04-02T16:15:38.553Z,9.80
2023-04-02T16:17:44.473Z,9.82
2023-04-02T16:19:50.719Z,9.84
2023-04-02T16:22:01.662Z,9.79
2023-04-02T16:24:07.393Z,9.83
2023-04-02T16:26:23.248Z,9.89
2023-04-02T16:28:30.391Z,9.95
2023-04-02T16:30:49.669Z,10.03
2023-04-02T16:33:01.105Z,10.06
2023-04-02T16:35:38.067Z,10.10
2023-04-02T16:37:39.527Z,9.98
2023-04-02T16:39:49.219Z,9.96
2023-04-02T16:41:57.802Z,9.93
2023-04-02T16:44:09.129Z,9.92
2023-04-02T16:46:25.301Z,9.85
2023-04-02T16:48:44.070Z,9.68
2023-04-02T16:50:55.249Z,9.63
2023-04-02T16:53:06.721Z,9.57
2023-04-02T16:55:24.374Z,9.45
2023-04-02T16:57:32.850Z,9.37
2023-04-02T16:59:42.452Z,9.16
2023-04-02T17:01:52.981Z,8.97
2023-04-02T17:04:10.143Z,8.84
2023-04-02T17:06:21.144Z,8.82
2023-04-02T17:08:26.711Z,8.72
2023-04-02T17:10:34.614Z,8.62
2023-04-02T17:12:44.876Z,8.56
2023-04-02T17:14:52.186Z,8.50
2023-04-02T17:16:58.922Z,8.54
2023-04-02T17:19:02.791Z,8.40
2023-04-02T17:21:08.560Z,8.39
2023-04-02T17:23:14.320Z,8.08
2023-04-02T17:25:22.762Z,8.15
2023-04-02T17:27:28.899Z,8.06
2023-04-02T17:29:36.582Z,7.97
2023-04-02T17:31:41.964Z,7.99
2023-04-02T17:33:45.152Z,7.96
2023-04-02T17:35:55.396Z,7.85
2023-04-02T17:38:03.180Z,7.88
2023-04-02T17:40:13.199Z,7.75
2023-04-02T17:42:22.478Z,7.73
2023-04-02T17:44:39.802Z,7.67
2023-04-02T17:46:49.159Z,7.61
2023-04-02T17:48:58.140Z,7.67
2023-04-02T17:51:09.668Z,7.64
2023-04-02T17:53:23.272Z,7.59
2023-04-02T17:55:32.361Z,7.50
2023-04-02T17:57:55.248Z,7.31
2023-04-02T18:00:10.352Z,7.22
2023-04-02T18:02:29.457Z,7.22
2023-04-02T18:04:39.710Z,7.12
2023-04-02T18:06:47.766Z,7.18
2023-04-02T18:09:00.780Z,7.19
2023-04-02T18:11:10.787Z,7.12
2023-04-02T18:13:21.641Z,7.10
2023-04-02T18:15:44.933Z,7.12
2023-04-02T18:17:51.545Z,7.19
2023-04-02T18:19:58.100Z,7.17
2023-04-02T18:22:04.727Z,7.11
2023-04-02T18:24:29.539Z,7.07
2023-04-02T18:26:38.417Z,6.97
2023-04-02T18:28:49.919Z,6.91
2023-04-02T18:30:59.046Z,6.89
2023-04-02T18:33:19.987Z,6.96
2023-04-02T18:35:27.045Z,6.83
2023-04-02T18:37:34.660Z,6.83
2023-04-02T18:39:45.867Z,6.86
2023-04-02T18:41:54.949Z,6.84
2023-04-02T18:44:10.719Z,6.70
2023-04-02T18:46:19.270Z,6.68
2023-04-02T18:48:32.884Z,6.67
2023-04-02T18:50:37.802Z,6.61
2023-04-02T18:52:41.246Z,6.64
2023-04-02T18:54:46.179Z,6.66
2023-04-02T18:56:49.357Z,6.65
2023-04-02T18:58:57.919Z,6.62
2023-04-02T19:01:02.688Z,6.59
2023-04-02T19:03:11.179Z,6.55
2023-04-02T19:05:22.114Z,6.45
2023-04-02T19:07:25.893Z,6.23
2023-04-02T19:09:33.042Z,6.22
2023-04-02T19:11:36.430Z,6.28
2023-04-02T19:13:39.565Z,6.13
2023-04-02T19:15:53.930Z,6.02
2023-04-02T19:18:00.829Z,5.92
2023-04-02T19:20:12.382Z,5.84
2023-04-02T19:22:21.250Z,5.90
2023-04-02T19:24:34.233Z,5.86
2023-04-02T19:26:42.641Z,5.73
2023-04-02T19:28:49.561Z,5.71
2023-04-02T19:31:05.115Z,5.71
2023-04-02T19:33:18.435Z,5.76
2023-04-02T19:35:24.761Z,5.86
2023-04-02T19:37:33.699Z,5.91
2023-04-02T19:40:10.093Z,5.93
2023-04-02T19:42:20.328Z,5.89
2023-04-02T19:44:23.585Z,5.89
2023-04-02T19:46:27.391Z,5.97
2023-04-02T19:48:42.272Z,5.98
2023-04-02T19:50:45.999Z,5.87
2023-04-02T19:52:49.248Z,5.84
2023-04-02T19:54:52.781Z,5.81
2023-04-02T19:56:56.225Z,5.92
2023-04-02T19:59:07.725Z,5.97
2023-04-02T20:01:20.349Z,5.89
2023-04-02T20:03:24.426Z,5.81
2023-04-02T20:05:29.419Z,5.73
2023-04-02T20:07:32.574Z,5.79
2023-04-02T20:09:35.866Z,5.78
2023-04-02T20:11:39.372Z,5.82
2023-04-02T20:13:42.968Z,5.67
2023-04-02T20:15:47.327Z,5.65
2023-04-02T20:17:50.843Z,5.61
2023-04-02T20:19:54.467Z,5.60
2023-04-02T20:21:59.494Z,5.54
2023-04-02T20:24:02.924Z,5.57
2023-04-02T20:26:06.840Z,5.64
2023-04-02T20:28:10.599Z,5.66
2023-04-02T20:30:14.413Z,5.68
2023-04-02T20:32:18.263Z,5.66
2023-04-02T20:34:21.676Z,5.72
2023-04-02T20:36:25.730Z,5.70
2023-04-02T20:38:30.955Z,5.70
2023-04-02T20:40:35.252Z,5.68
2023-04-02T20:42:38.567Z,5.64
2023-04-02T20:44:42.089Z,5.61
2023-04-02T20:46:45.459Z,5.52
2023-04-02T20:48:49.109Z,5.60
2023-04-02T20:50:52.312Z,5.68
2023-04-02T20:52:55.693Z,5.57
2023-04-02T20:55:02.687Z,5.59
2023-04-02T20:57:06.309Z,5.39
2023-04-02T20:59:09.523Z,5.34
2023-04-02T21:01:13.852Z,5.38
2023-04-02T21:03:17.007Z,5.39
2023-04-02T21:05:20.038Z,5.42
2023-04-02T21:07:23.202Z,5.41
2023-04-02T21:09:27.002Z,5.47
2023-04-02T21:11:31.566Z,5.49
2023-04-02T21:13:36.512Z,5.56
2023-04-02T21:15:43.273Z,5.60
2023-04-02T21:17:46.642Z,5.61
2023-04-02T21:19:49.766Z,5.60
2023-04-02T21:21:55.974Z,5.66
2023-04-02T21:24:00.624Z,5.66
2023-04-02T21:26:06.291Z,5.60
2023-04-02T21:28:10.788Z,5.51
2023-04-02T21:30:14.318Z,5.49
2023-04-02T21:32:21.614Z,5.47
2023-04-02T21:34:25.304Z,5.42
2023-04-02T21:36:30.444Z,5.41
2023-04-02T21:38:33.592Z,5.32
2023-04-02T21:40:36.767Z,5.39
2023-04-02T21:42:39.889Z,5.41
2023-04-02T21:44:44.397Z,5.26
2023-04-02T21:46:47.886Z,5.19
2023-04-02T21:48:52.196Z,5.22
2023-04-02T21:50:55.344Z,5.25
2023-04-02T21:52:58.480Z,5.19
2023-04-02T21:55:01.680Z,5.12
2023-04-02T21:57:05.059Z,5.18
2023-04-02T21:59:09.516Z,5.18
2023-04-02T22:01:26.141Z,5.18
2023-04-02T22:03:32.030Z,5.24
2023-04-02T22:05:35.584Z,5.22
2023-04-02T22:07:38.873Z,5.22
2023-04-02T22:09:42.009Z,5.15
2023-04-02T22:11:46.805Z,5.07
2023-04-02T22:13:51.267Z,5.01
2023-04-02T22:15:54.371Z,5.02
2023-04-02T22:17:58.868Z,5.04
2023-04-02T22:20:02.010Z,4.90
2023-04-02T22:22:05.283Z,4.95
2023-04-02T22:24:10.258Z,4.92
2023-04-02T22:26:14.465Z,4.83
2023-04-02T22:28:17.597Z,4.88
2023-04-02T22:30:20.800Z,4.85
2023-04-02T22:32:23.894Z,4.90
2023-04-02T22:34:28.753Z,4.86
2023-04-02T22:36:32.582Z,4.79
2023-04-02T22:38:36.023Z,4.80
2023-04-02T22:40:39.272Z,4.80
2023-04-02T22:42:42.293Z,4.78
2023-04-02T22:44:45.631Z,4.71
2023-04-02T22:46:48.730Z,4.70
2023-04-02T22:48:52.240Z,4.69
2023-04-02T22:50:56.747Z,4.61
2023-04-02T22:52:59.925Z,4.59
2023-04-02T22:55:03.039Z,4.49
2023-04-02T22:57:06.964Z,4.50
2023-04-02T22:59:10.185Z,4.50
2023-04-02T23:01:16.693Z,4.51
2023-04-02T23:03:19.826Z,4.41
2023-04-02T23:05:22.874Z,4.46
2023-04-02T23:07:27.307Z,4.47
2023-04-02T23:09:30.542Z,4.45
2023-04-02T23:11:33.833Z,4.45
2023-04-02T23:13:39.226Z,4.48
2023-04-02T23:15:45.159Z,4.40
2023-04-02T23:17:48.380Z,4.43
2023-04-02T23:19:51.508Z,4.48
2023-04-02T23:21:54.586Z,4.58
2023-04-02T23:23:58.988Z,4.61
2023-04-02T23:26:07.191Z,4.59
2023-04-02T23:28:12.225Z,4.62
2023-04-02T23:30:15.560Z,4.60
2023-04-02T23:32:19.390Z,4.59
2023-04-02T23:34:22.455Z,4.58
2023-04-02T23:36:27.455Z,4.61
2023-04-02T23:38:30.481Z,4.62
2023-04-02T23:40:35.111Z,4.66
2023-04-02T23:42:38.491Z,4.74
2023-04-02T23:44:41.586Z,4.74
2023-04-02T23:46:44.736Z,4.81
2023-04-02T23:48:47.940Z,4.84
2023-04-02T23:50:51.047Z,4.79
2023-04-02T23:52:54.277Z,4.73
2023-04-02T23:54:57.326Z,4.77
2023-04-02T23:57:01.752Z,4.86
2023-04-02T23:59:05.354Z,4.81
